sensor_id;sensor_type;location;lat;lon;timestamp;P1;durP1;ratioP1;P2;durP2;ratioP2
18146;SDS011;9199;48.832;9.182;2023-11-18T00:01:30;9.48;;;5.55;;
18146;SDS011;9199;48.832;9.182;2023-11-18T00:03:58;8.37;;;5.13;;
18146;SDS011;9199;48.832;9.182;2023-11-18T00:06:25;9.20;;;5.45;;
18146;SDS011;9199;48.832;9.182;2023-11-18T00:08:51;9.52;;;5.00;;
18146;SDS011;9199;48.832;9.182;2023-11-18T00:11:19;7.82;;;4.90;;
18146;SDS011;9199;48.832;9.182;2023-11-18T00:13:45;8.35;;;4.18;;
18146;SDS011;9199;48.832;9.182;2023-11-18T00:16:14;7.57;;;4.20;;
18146;SDS011;9199;48.832;9.182;2023-11-18T00:18:41;9.43;;;4.80;;
18146;SDS011;9199;48.832;9.182;2023-11-18T00:21:09;9.60;;;4.60;;
18146;SDS011;9199;48.832;9.182;2023-11-18T00:23:36;6.85;;;3.78;;
18146;SDS011;9199;48.832;9.182;2023-11-18T00:26:04;8.23;;;3.85;;
18146;SDS011;9199;48.832;9.182;2023-11-18T00:28:32;6.27;;;3.37;;
18146;SDS011;9199;48.832;9.182;2023-11-18T00:30:59;5.78;;;3.33;;
18146;SDS011;9199;48.832;9.182;2023-11-18T00:33:27;6.20;;;3.20;;
18146;SDS011;9199;48.832;9.182;2023-11-18T00:35:53;5.78;;;3.22;;
18146;SDS011;9199;48.832;9.182;2023-11-18T00:38:20;7.03;;;3.38;;
18146;SDS011;9199;48.832;9.182;2023-11-18T00:40:47;6.33;;;3.30;;
18146;SDS011;9199;48.832;9.182;2023-11-18T00:43:14;5.93;;;3.05;;
18146;SDS011;9199;48.832;9.182;2023-11-18T00:45:40;7.00;;;3.90;;
18146;SDS011;9199;48.832;9.182;2023-11-18T00:48:08;7.85;;;3.60;;
18146;SDS011;9199;48.832;9.182;2023-11-18T00:50:36;4.97;;;2.90;;
18146;SDS011;9199;48.832;9.182;2023-11-18T00:53:03;5.63;;;3.20;;
18146;SDS011;9199;48.832;9.182;2023-11-18T00:55:30;6.15;;;3.50;;
18146;SDS011;9199;48.832;9.182;2023-11-18T00:57:57;6.70;;;3.72;;
18146;SDS011;9199;48.832;9.182;2023-11-18T01:00:24;5.55;;;3.30;;
18146;SDS011;9199;48.832;9.182;2023-11-18T01:02:52;7.40;;;3.58;;
18146;SDS011;9199;48.832;9.182;2023-11-18T01:05:19;6.67;;;3.47;;
18146;SDS011;9199;48.832;9.182;2023-11-18T01:07:47;8.15;;;3.85;;
18146;SDS011;9199;48.832;9.182;2023-11-18T01:10:14;7.63;;;3.85;;
18146;SDS011;9199;48.832;9.182;2023-11-18T01:12:41;8.65;;;4.30;;
18146;SDS011;9199;48.832;9.182;2023-11-18T01:15:09;7.30;;;3.72;;
18146;SDS011;9199;48.832;9.182;2023-11-18T01:17:37;8.17;;;3.70;;
18146;SDS011;9199;48.832;9.182;2023-11-18T01:20:05;8.05;;;3.90;;
18146;SDS011;9199;48.832;9.182;2023-11-18T01:22:36;8.63;;;3.63;;
18146;SDS011;9199;48.832;9.182;2023-11-18T01:25:04;6.65;;;3.35;;
18146;SDS011;9199;48.832;9.182;2023-11-18T01:27:33;6.28;;;3.38;;
18146;SDS011;9199;48.832;9.182;2023-11-18T01:30:00;5.47;;;3.10;;
18146;SDS011;9199;48.832;9.182;2023-11-18T01:32:29;6.72;;;3.10;;
18146;SDS011;9199;48.832;9.182;2023-11-18T01:34:56;5.68;;;2.90;;
18146;SDS011;9199;48.832;9.182;2023-11-18T01:37:22;5.38;;;2.80;;
18146;SDS011;9199;48.832;9.182;2023-11-18T01:39:49;5.35;;;3.20;;
18146;SDS011;9199;48.832;9.182;2023-11-18T01:42:17;6.53;;;3.10;;
18146;SDS011;9199;48.832;9.182;2023-11-18T01:44:44;6.93;;;3.92;;
18146;SDS011;9199;48.832;9.182;2023-11-18T01:47:12;7.72;;;5.00;;
18146;SDS011;9199;48.832;9.182;2023-11-18T01:49:39;7.50;;;4.50;;
18146;SDS011;9199;48.832;9.182;2023-11-18T01:52:08;7.70;;;4.30;;
18146;SDS011;9199;48.832;9.182;2023-11-18T01:54:37;7.90;;;3.80;;
18146;SDS011;9199;48.832;9.182;2023-11-18T01:57:04;6.68;;;3.92;;
18146;SDS011;9199;48.832;9.182;2023-11-18T01:59:35;7.65;;;4.07;;
18146;SDS011;9199;48.832;9.182;2023-11-18T02:02:03;8.15;;;3.58;;
18146;SDS011;9199;48.832;9.182;2023-11-18T02:04:31;6.15;;;3.75;;
18146;SDS011;9199;48.832;9.182;2023-11-18T02:06:58;6.83;;;3.90;;
18146;SDS011;9199;48.832;9.182;2023-11-18T02:09:29;7.63;;;4.20;;
18146;SDS011;9199;48.832;9.182;2023-11-18T02:11:56;9.65;;;5.97;;
18146;SDS011;9199;48.832;9.182;2023-11-18T02:14:29;8.85;;;5.10;;
18146;SDS011;9199;48.832;9.182;2023-11-18T02:17:03;8.85;;;5.53;;
18146;SDS011;9199;48.832;9.182;2023-11-18T02:19:34;8.37;;;5.47;;
18146;SDS011;9199;48.832;9.182;2023-11-18T02:22:01;8.65;;;5.30;;
18146;SDS011;9199;48.832;9.182;2023-11-18T02:24:32;9.93;;;5.22;;
18146;SDS011;9199;48.832;9.182;2023-11-18T02:27:03;7.45;;;4.60;;
18146;SDS011;9199;48.832;9.182;2023-11-18T02:29:32;7.07;;;4.28;;
18146;SDS011;9199;48.832;9.182;2023-11-18T02:32:03;5.97;;;3.63;;
18146;SDS011;9199;48.832;9.182;2023-11-18T02:34:38;5.95;;;3.50;;
18146;SDS011;9199;48.832;9.182;2023-11-18T02:37:10;5.78;;;3.70;;
18146;SDS011;9199;48.832;9.182;2023-11-18T02:39:39;6.18;;;3.35;;
18146;SDS011;9199;48.832;9.182;2023-11-18T02:42:09;5.72;;;3.60;;
18146;SDS011;9199;48.832;9.182;2023-11-18T02:44:39;10.43;;;3.80;;
18146;SDS011;9199;48.832;9.182;2023-11-18T02:47:07;6.93;;;3.85;;
18146;SDS011;9199;48.832;9.182;2023-11-18T02:49:35;6.07;;;3.70;;
18146;SDS011;9199;48.832;9.182;2023-11-18T02:52:02;5.63;;;3.50;;
18146;SDS011;9199;48.832;9.182;2023-11-18T02:54:30;8.95;;;4.93;;
18146;SDS011;9199;48.832;9.182;2023-11-18T02:56:56;7.20;;;4.60;;
18146;SDS011;9199;48.832;9.182;2023-11-18T02:59:25;7.72;;;4.80;;
18146;SDS011;9199;48.832;9.182;2023-11-18T03:01:55;9.15;;;4.72;;
18146;SDS011;9199;48.832;9.182;2023-11-18T03:04:22;9.15;;;5.03;;
18146;SDS011;9199;48.832;9.182;2023-11-18T03:06:50;8.13;;;5.10;;
18146;SDS011;9199;48.832;9.182;2023-11-18T03:09:16;7.83;;;4.90;;
18146;SDS011;9199;48.832;9.182;2023-11-18T03:11:43;7.18;;;4.63;;
18146;SDS011;9199;48.832;9.182;2023-11-18T03:14:10;6.60;;;3.85;;
18146;SDS011;9199;48.832;9.182;2023-11-18T03:16:39;6.32;;;3.53;;
18146;SDS011;9199;48.832;9.182;2023-11-18T03:19:05;5.97;;;3.47;;
18146;SDS011;9199;48.832;9.182;2023-11-18T03:21:33;5.30;;;2.97;;
18146;SDS011;9199;48.832;9.182;2023-11-18T03:24:00;5.90;;;3.72;;
18146;SDS011;9199;48.832;9.182;2023-11-18T03:26:27;8.70;;;5.45;;
18146;SDS011;9199;48.832;9.182;2023-11-18T03:28:54;8.50;;;4.75;;
18146;SDS011;9199;48.832;9.182;2023-11-18T03:31:21;9.18;;;4.78;;
18146;SDS011;9199;48.832;9.182;2023-11-18T03:33:49;7.63;;;4.37;;
18146;SDS011;9199;48.832;9.182;2023-11-18T03:36:16;6.53;;;3.88;;
18146;SDS011;9199;48.832;9.182;2023-11-18T03:38:44;7.18;;;3.63;;
18146;SDS011;9199;48.832;9.182;2023-11-18T03:41:11;6.80;;;3.30;;
18146;SDS011;9199;48.832;9.182;2023-11-18T03:43:38;9.13;;;3.60;;
18146;SDS011;9199;48.832;9.182;2023-11-18T03:46:05;6.37;;;3.47;;
18146;SDS011;9199;48.832;9.182;2023-11-18T03:48:32;6.88;;;3.00;;
18146;SDS011;9199;48.832;9.182;2023-11-18T03:51:01;5.50;;;3.08;;
18146;SDS011;9199;48.832;9.182;2023-11-18T03:53:28;5.32;;;3.10;;
18146;SDS011;9199;48.832;9.182;2023-11-18T03:55:55;5.80;;;3.20;;
18146;SDS011;9199;48.832;9.182;2023-11-18T03:58:22;7.17;;;3.20;;
18146;SDS011;9199;48.832;9.182;2023-11-18T04:00:49;6.07;;;3.10;;
18146;SDS011;9199;48.832;9.182;2023-11-18T04:03:15;5.05;;;2.83;;
18146;SDS011;9199;48.832;9.182;2023-11-18T04:05:42;5.88;;;2.95;;
18146;SDS011;9199;48.832;9.182;2023-11-18T04:08:11;4.22;;;2.45;;
18146;SDS011;9199;48.832;9.182;2023-11-18T04:10:38;5.83;;;2.40;;
18146;SDS011;9199;48.832;9.182;2023-11-18T04:13:06;6.22;;;3.83;;
18146;SDS011;9199;48.832;9.182;2023-11-18T04:15:32;7.03;;;4.63;;
18146;SDS011;9199;48.832;9.182;2023-11-18T04:18:00;8.05;;;5.15;;
18146;SDS011;9199;48.832;9.182;2023-11-18T04:20:27;8.68;;;5.07;;
18146;SDS011;9199;48.832;9.182;2023-11-18T04:22:54;9.03;;;5.20;;
18146;SDS011;9199;48.832;9.182;2023-11-18T04:25:22;8.15;;;4.93;;
18146;SDS011;9199;48.832;9.182;2023-11-18T04:27:50;8.55;;;5.22;;
18146;SDS011;9199;48.832;9.182;2023-11-18T04:30:17;11.07;;;5.28;;
18146;SDS011;9199;48.832;9.182;2023-11-18T04:32:44;8.73;;;5.18;;
18146;SDS011;9199;48.832;9.182;2023-11-18T04:35:10;10.73;;;5.10;;
18146;SDS011;9199;48.832;9.182;2023-11-18T04:37:37;9.48;;;4.82;;
18146;SDS011;9199;48.832;9.182;2023-11-18T04:40:08;7.50;;;4.13;;
18146;SDS011;9199;48.832;9.182;2023-11-18T04:42:38;8.55;;;4.50;;
18146;SDS011;9199;48.832;9.182;2023-11-18T04:45:05;7.55;;;4.20;;
18146;SDS011;9199;48.832;9.182;2023-11-18T04:47:34;6.93;;;4.03;;
18146;SDS011;9199;48.832;9.182;2023-11-18T04:50:02;6.93;;;3.70;;
18146;SDS011;9199;48.832;9.182;2023-11-18T04:52:30;6.57;;;3.45;;
18146;SDS011;9199;48.832;9.182;2023-11-18T04:54:57;6.13;;;3.20;;
18146;SDS011;9199;48.832;9.182;2023-11-18T04:57:25;6.65;;;3.47;;
18146;SDS011;9199;48.832;9.182;2023-11-18T04:59:53;6.43;;;4.20;;
18146;SDS011;9199;48.832;9.182;2023-11-18T05:02:20;7.55;;;4.00;;
18146;SDS011;9199;48.832;9.182;2023-11-18T05:04:46;6.50;;;3.80;;
18146;SDS011;9199;48.832;9.182;2023-11-18T05:07:14;6.50;;;3.47;;
18146;SDS011;9199;48.832;9.182;2023-11-18T05:09:40;6.32;;;3.85;;
18146;SDS011;9199;48.832;9.182;2023-11-18T05:12:07;6.33;;;3.13;;
18146;SDS011;9199;48.832;9.182;2023-11-18T05:14:34;6.05;;;3.20;;
18146;SDS011;9199;48.832;9.182;2023-11-18T05:17:02;5.13;;;2.88;;
18146;SDS011;9199;48.832;9.182;2023-11-18T05:19:29;6.57;;;3.00;;
18146;SDS011;9199;48.832;9.182;2023-11-18T05:21:56;5.57;;;3.15;;
18146;SDS011;9199;48.832;9.182;2023-11-18T05:24:24;5.37;;;3.20;;
18146;SDS011;9199;48.832;9.182;2023-11-18T05:26:50;6.22;;;3.67;;
18146;SDS011;9199;48.832;9.182;2023-11-18T05:29:17;6.03;;;3.60;;
18146;SDS011;9199;48.832;9.182;2023-11-18T05:31:46;6.10;;;3.28;;
18146;SDS011;9199;48.832;9.182;2023-11-18T05:34:14;5.22;;;3.15;;
18146;SDS011;9199;48.832;9.182;2023-11-18T05:36:40;6.47;;;3.20;;
18146;SDS011;9199;48.832;9.182;2023-11-18T05:39:07;6.07;;;3.40;;
18146;SDS011;9199;48.832;9.182;2023-11-18T05:41:35;5.57;;;3.15;;
18146;SDS011;9199;48.832;9.182;2023-11-18T05:44:05;5.22;;;3.15;;
18146;SDS011;9199;48.832;9.182;2023-11-18T05:46:34;6.28;;;3.53;;
18146;SDS011;9199;48.832;9.182;2023-11-18T05:49:01;10.00;;;3.60;;
18146;SDS011;9199;48.832;9.182;2023-11-18T05:51:33;6.75;;;3.30;;
18146;SDS011;9199;48.832;9.182;2023-11-18T05:54:00;7.10;;;3.80;;
18146;SDS011;9199;48.832;9.182;2023-11-18T05:56:27;6.25;;;3.45;;
18146;SDS011;9199;48.832;9.182;2023-11-18T05:58:54;6.70;;;3.55;;
18146;SDS011;9199;48.832;9.182;2023-11-18T06:01:21;5.60;;;3.10;;
18146;SDS011;9199;48.832;9.182;2023-11-18T06:03:48;7.05;;;3.45;;
18146;SDS011;9199;48.832;9.182;2023-11-18T06:06:15;5.15;;;3.03;;
18146;SDS011;9199;48.832;9.182;2023-11-18T06:08:44;8.35;;;3.35;;
18146;SDS011;9199;48.832;9.182;2023-11-18T06:11:12;6.93;;;3.35;;
18146;SDS011;9199;48.832;9.182;2023-11-18T06:13:40;6.37;;;3.10;;
18146;SDS011;9199;48.832;9.182;2023-11-18T06:16:14;5.20;;;3.03;;
18146;SDS011;9199;48.832;9.182;2023-11-18T06:18:42;7.10;;;3.50;;
18146;SDS011;9199;48.832;9.182;2023-11-18T06:21:10;4.95;;;2.85;;
18146;SDS011;9199;48.832;9.182;2023-11-18T06:23:38;5.57;;;3.30;;
18146;SDS011;9199;48.832;9.182;2023-11-18T06:26:06;5.83;;;3.20;;
18146;SDS011;9199;48.832;9.182;2023-11-18T06:28:35;5.32;;;2.83;;
18146;SDS011;9199;48.832;9.182;2023-11-18T06:31:02;6.38;;;3.28;;
18146;SDS011;9199;48.832;9.182;2023-11-18T06:33:29;7.97;;;3.70;;
18146;SDS011;9199;48.832;9.182;2023-11-18T06:35:56;7.82;;;4.00;;
18146;SDS011;9199;48.832;9.182;2023-11-18T06:38:22;7.27;;;4.20;;
18146;SDS011;9199;48.832;9.182;2023-11-18T06:40:49;6.28;;;3.72;;
18146;SDS011;9199;48.832;9.182;2023-11-18T06:43:19;7.55;;;4.00;;
18146;SDS011;9199;48.832;9.182;2023-11-18T06:45:45;8.32;;;3.60;;
18146;SDS011;9199;48.832;9.182;2023-11-18T06:48:13;6.45;;;3.10;;
18146;SDS011;9199;48.832;9.182;2023-11-18T06:50:40;5.20;;;2.73;;
18146;SDS011;9199;48.832;9.182;2023-11-18T06:53:09;4.43;;;2.20;;
18146;SDS011;9199;48.832;9.182;2023-11-18T06:55:36;6.18;;;2.47;;
18146;SDS011;9199;48.832;9.182;2023-11-18T06:58:03;4.65;;;2.42;;
18146;SDS011;9199;48.832;9.182;2023-11-18T07:00:31;5.95;;;2.92;;
18146;SDS011;9199;48.832;9.182;2023-11-18T07:02:58;5.40;;;3.10;;
18146;SDS011;9199;48.832;9.182;2023-11-18T07:05:26;5.25;;;3.00;;
18146;SDS011;9199;48.832;9.182;2023-11-18T07:07:53;6.70;;;3.20;;
18146;SDS011;9199;48.832;9.182;2023-11-18T07:10:20;6.00;;;3.63;;
18146;SDS011;9199;48.832;9.182;2023-11-18T07:12:47;6.18;;;3.30;;
18146;SDS011;9199;48.832;9.182;2023-11-18T07:15:14;5.67;;;3.33;;
18146;SDS011;9199;48.832;9.182;2023-11-18T07:17:42;6.70;;;3.55;;
18146;SDS011;9199;48.832;9.182;2023-11-18T07:20:09;6.05;;;3.50;;
18146;SDS011;9199;48.832;9.182;2023-11-18T07:22:38;7.45;;;3.60;;
18146;SDS011;9199;48.832;9.182;2023-11-18T07:25:06;6.65;;;3.50;;
18146;SDS011;9199;48.832;9.182;2023-11-18T07:27:34;8.13;;;3.80;;
18146;SDS011;9199;48.832;9.182;2023-11-18T07:30:01;8.63;;;3.80;;
18146;SDS011;9199;48.832;9.182;2023-11-18T07:32:29;6.55;;;3.67;;
18146;SDS011;9199;48.832;9.182;2023-11-18T07:34:57;6.13;;;3.50;;
18146;SDS011;9199;48.832;9.182;2023-11-18T07:37:24;6.25;;;3.72;;
18146;SDS011;9199;48.832;9.182;2023-11-18T07:39:51;8.80;;;3.77;;
18146;SDS011;9199;48.832;9.182;2023-11-18T07:42:20;6.72;;;3.90;;
18146;SDS011;9199;48.832;9.182;2023-11-18T07:44:46;6.65;;;3.75;;
18146;SDS011;9199;48.832;9.182;2023-11-18T07:47:13;7.75;;;3.47;;
18146;SDS011;9199;48.832;9.182;2023-11-18T07:49:41;8.13;;;3.63;;
18146;SDS011;9199;48.832;9.182;2023-11-18T07:52:09;7.83;;;3.77;;
18146;SDS011;9199;48.832;9.182;2023-11-18T07:54:35;7.28;;;3.70;;
18146;SDS011;9199;48.832;9.182;2023-11-18T07:57:03;6.28;;;3.47;;
18146;SDS011;9199;48.832;9.182;2023-11-18T07:59:32;6.88;;;3.10;;
18146;SDS011;9199;48.832;9.182;2023-11-18T08:01:59;7.70;;;3.75;;
18146;SDS011;9199;48.832;9.182;2023-11-18T08:04:28;6.20;;;3.53;;
18146;SDS011;9199;48.832;9.182;2023-11-18T08:06:54;6.78;;;3.60;;
18146;SDS011;9199;48.832;9.182;2023-11-18T08:09:23;8.23;;;3.80;;
18146;SDS011;9199;48.832;9.182;2023-11-18T08:11:50;6.22;;;2.90;;
18146;SDS011;9199;48.832;9.182;2023-11-18T08:14:20;5.85;;;3.17;;
18146;SDS011;9199;48.832;9.182;2023-11-18T08:16:47;5.33;;;3.13;;
18146;SDS011;9199;48.832;9.182;2023-11-18T08:19:14;4.93;;;2.88;;
18146;SDS011;9199;48.832;9.182;2023-11-18T08:21:41;6.78;;;3.20;;
18146;SDS011;9199;48.832;9.182;2023-11-18T08:24:08;6.65;;;2.90;;
18146;SDS011;9199;48.832;9.182;2023-11-18T08:26:36;5.60;;;2.40;;
18146;SDS011;9199;48.832;9.182;2023-11-18T08:29:03;7.10;;;3.27;;
18146;SDS011;9199;48.832;9.182;2023-11-18T08:31:30;5.55;;;2.80;;
18146;SDS011;9199;48.832;9.182;2023-11-18T08:33:57;5.88;;;3.40;;
18146;SDS011;9199;48.832;9.182;2023-11-18T08:36:25;7.53;;;2.90;;
18146;SDS011;9199;48.832;9.182;2023-11-18T08:38:52;5.10;;;2.95;;
18146;SDS011;9199;48.832;9.182;2023-11-18T08:41:22;7.77;;;3.20;;
18146;SDS011;9199;48.832;9.182;2023-11-18T08:43:51;8.98;;;3.10;;
18146;SDS011;9199;48.832;9.182;2023-11-18T08:46:18;7.68;;;2.75;;
18146;SDS011;9199;48.832;9.182;2023-11-18T08:48:46;5.15;;;2.70;;
18146;SDS011;9199;48.832;9.182;2023-11-18T08:51:13;5.55;;;2.72;;
18146;SDS011;9199;48.832;9.182;2023-11-18T08:53:41;4.27;;;2.30;;
18146;SDS011;9199;48.832;9.182;2023-11-18T08:56:10;5.13;;;2.58;;
18146;SDS011;9199;48.832;9.182;2023-11-18T08:58:40;6.60;;;2.35;;
18146;SDS011;9199;48.832;9.182;2023-11-18T09:01:10;5.72;;;2.58;;
18146;SDS011;9199;48.832;9.182;2023-11-18T09:03:41;5.32;;;2.50;;
18146;SDS011;9199;48.832;9.182;2023-11-18T09:06:13;5.40;;;2.50;;
18146;SDS011;9199;48.832;9.182;2023-11-18T09:08:43;4.07;;;2.03;;
18146;SDS011;9199;48.832;9.182;2023-11-18T09:11:12;5.45;;;2.13;;
18146;SDS011;9199;48.832;9.182;2023-11-18T09:13:41;5.78;;;2.17;;
18146;SDS011;9199;48.832;9.182;2023-11-18T09:16:11;4.70;;;1.75;;
18146;SDS011;9199;48.832;9.182;2023-11-18T09:18:38;6.00;;;1.80;;
18146;SDS011;9199;48.832;9.182;2023-11-18T09:21:07;4.88;;;1.70;;
18146;SDS011;9199;48.832;9.182;2023-11-18T09:23:39;3.75;;;2.10;;
18146;SDS011;9199;48.832;9.182;2023-11-18T09:26:08;6.05;;;1.73;;
18146;SDS011;9199;48.832;9.182;2023-11-18T09:28:36;4.20;;;1.77;;
18146;SDS011;9199;48.832;9.182;2023-11-18T09:31:02;6.60;;;1.90;;
18146;SDS011;9199;48.832;9.182;2023-11-18T09:33:32;3.97;;;1.65;;
18146;SDS011;9199;48.832;9.182;2023-11-18T09:36:00;4.05;;;1.55;;
18146;SDS011;9199;48.832;9.182;2023-11-18T09:38:27;4.00;;;1.52;;
18146;SDS011;9199;48.832;9.182;2023-11-18T09:40:55;6.07;;;2.05;;
18146;SDS011;9199;48.832;9.182;2023-11-18T09:43:23;3.53;;;1.50;;
18146;SDS011;9199;48.832;9.182;2023-11-18T09:45:53;6.18;;;1.92;;
18146;SDS011;9199;48.832;9.182;2023-11-18T09:48:22;5.95;;;1.80;;
18146;SDS011;9199;48.832;9.182;2023-11-18T09:50:52;3.63;;;1.50;;
18146;SDS011;9199;48.832;9.182;2023-11-18T09:53:22;4.50;;;1.65;;
18146;SDS011;9199;48.832;9.182;2023-11-18T09:55:53;5.13;;;1.47;;
18146;SDS011;9199;48.832;9.182;2023-11-18T09:58:28;3.35;;;1.40;;
18146;SDS011;9199;48.832;9.182;2023-11-18T10:01:06;4.22;;;1.40;;
18146;SDS011;9199;48.832;9.182;2023-11-18T10:03:38;4.05;;;1.30;;
18146;SDS011;9199;48.832;9.182;2023-11-18T10:06:09;3.92;;;1.40;;
18146;SDS011;9199;48.832;9.182;2023-11-18T10:08:37;4.77;;;1.57;;
18146;SDS011;9199;48.832;9.182;2023-11-18T10:11:04;4.90;;;1.63;;
18146;SDS011;9199;48.832;9.182;2023-11-18T10:13:34;4.78;;;1.30;;
18146;SDS011;9199;48.832;9.182;2023-11-18T10:16:05;3.25;;;1.45;;
18146;SDS011;9199;48.832;9.182;2023-11-18T10:18:33;4.07;;;1.60;;
18146;SDS011;9199;48.832;9.182;2023-11-18T10:21:02;3.50;;;1.30;;
18146;SDS011;9199;48.832;9.182;2023-11-18T10:23:34;4.10;;;1.40;;
18146;SDS011;9199;48.832;9.182;2023-11-18T10:26:02;4.40;;;1.50;;
18146;SDS011;9199;48.832;9.182;2023-11-18T10:28:30;4.38;;;1.40;;
18146;SDS011;9199;48.832;9.182;2023-11-18T10:30:59;4.75;;;1.55;;
18146;SDS011;9199;48.832;9.182;2023-11-18T10:33:29;4.80;;;1.70;;
18146;SDS011;9199;48.832;9.182;2023-11-18T10:35:56;5.43;;;1.73;;
18146;SDS011;9199;48.832;9.182;2023-11-18T10:38:28;3.65;;;1.50;;
18146;SDS011;9199;48.832;9.182;2023-11-18T10:40:57;3.70;;;1.25;;
18146;SDS011;9199;48.832;9.182;2023-11-18T10:43:26;6.32;;;1.75;;
18146;SDS011;9199;48.832;9.182;2023-11-18T10:46:03;3.77;;;1.60;;
18146;SDS011;9199;48.832;9.182;2023-11-18T10:48:36;6.07;;;1.42;;
18146;SDS011;9199;48.832;9.182;2023-11-18T10:51:06;5.15;;;1.55;;
18146;SDS011;9199;48.832;9.182;2023-11-18T10:53:33;3.42;;;1.33;;
18146;SDS011;9199;48.832;9.182;2023-11-18T10:56:04;4.35;;;1.60;;
18146;SDS011;9199;48.832;9.182;2023-11-18T10:58:35;4.53;;;1.60;;
18146;SDS011;9199;48.832;9.182;2023-11-18T11:01:06;3.42;;;1.50;;
18146;SDS011;9199;48.832;9.182;2023-11-18T11:03:39;3.60;;;1.45;;
18146;SDS011;9199;48.832;9.182;2023-11-18T11:06:20;7.20;;;1.52;;
18146;SDS011;9199;48.832;9.182;2023-11-18T11:08:49;3.55;;;1.30;;
18146;SDS011;9199;48.832;9.182;2023-11-18T11:11:17;2.90;;;1.20;;
18146;SDS011;9199;48.832;9.182;2023-11-18T11:13:48;5.93;;;2.80;;
18146;SDS011;9199;48.832;9.182;2023-11-18T11:16:16;4.93;;;1.48;;
18146;SDS011;9199;48.832;9.182;2023-11-18T11:18:47;4.78;;;1.60;;
18146;SDS011;9199;48.832;9.182;2023-11-18T11:21:19;5.85;;;1.85;;
18146;SDS011;9199;48.832;9.182;2023-11-18T11:23:53;4.93;;;2.40;;
18146;SDS011;9199;48.832;9.182;2023-11-18T11:26:40;3.45;;;1.55;;
18146;SDS011;9199;48.832;9.182;2023-11-18T11:29:24;4.35;;;1.50;;
18146;SDS011;9199;48.832;9.182;2023-11-18T11:31:53;3.97;;;1.38;;
18146;SDS011;9199;48.832;9.182;2023-11-18T11:34:25;3.55;;;1.60;;
18146;SDS011;9199;48.832;9.182;2023-11-18T11:36:54;3.87;;;1.50;;
18146;SDS011;9199;48.832;9.182;2023-11-18T11:39:25;4.32;;;1.40;;
18146;SDS011;9199;48.832;9.182;2023-11-18T11:41:56;2.97;;;1.30;;
18146;SDS011;9199;48.832;9.182;2023-11-18T11:44:24;3.17;;;1.40;;
18146;SDS011;9199;48.832;9.182;2023-11-18T11:46:54;4.68;;;1.60;;
18146;SDS011;9199;48.832;9.182;2023-11-18T11:49:25;3.93;;;1.13;;
18146;SDS011;9199;48.832;9.182;2023-11-18T11:51:56;3.13;;;1.30;;
18146;SDS011;9199;48.832;9.182;2023-11-18T11:54:29;3.97;;;1.45;;
18146;SDS011;9199;48.832;9.182;2023-11-18T11:57:07;3.72;;;1.30;;
18146;SDS011;9199;48.832;9.182;2023-11-18T11:59:35;2.92;;;1.15;;
18146;SDS011;9199;48.832;9.182;2023-11-18T12:02:03;6.17;;;1.20;;
18146;SDS011;9199;48.832;9.182;2023-11-18T12:04:32;3.45;;;1.20;;
18146;SDS011;9199;48.832;9.182;2023-11-18T12:07:03;4.32;;;1.30;;
18146;SDS011;9199;48.832;9.182;2023-11-18T12:09:31;4.25;;;1.05;;
18146;SDS011;9199;48.832;9.182;2023-11-18T12:12:03;3.88;;;1.27;;
18146;SDS011;9199;48.832;9.182;2023-11-18T12:14:42;4.33;;;1.27;;
18146;SDS011;9199;48.832;9.182;2023-11-18T12:17:15;3.92;;;1.00;;
18146;SDS011;9199;48.832;9.182;2023-11-18T12:19:47;2.58;;;1.00;;
18146;SDS011;9199;48.832;9.182;2023-11-18T12:22:15;4.38;;;1.20;;
18146;SDS011;9199;48.832;9.182;2023-11-18T12:27:58;3.57;;;1.10;;
18146;SDS011;9199;48.832;9.182;2023-11-18T12:30:40;4.75;;;1.40;;
18146;SDS011;9199;48.832;9.182;2023-11-18T12:33:17;3.58;;;1.10;;
18146;SDS011;9199;48.832;9.182;2023-11-18T12:42:01;6.40;;;1.30;;
18146;SDS011;9199;48.832;9.182;2023-11-18T12:44:33;3.15;;;1.30;;
18146;SDS011;9199;48.832;9.182;2023-11-18T12:47:06;5.03;;;1.48;;
18146;SDS011;9199;48.832;9.182;2023-11-18T12:49:40;3.78;;;1.20;;
18146;SDS011;9199;48.832;9.182;2023-11-18T12:52:07;5.38;;;1.30;;
18146;SDS011;9199;48.832;9.182;2023-11-18T12:54:34;3.57;;;1.20;;
18146;SDS011;9199;48.832;9.182;2023-11-18T12:57:03;4.25;;;1.10;;
18146;SDS011;9199;48.832;9.182;2023-11-18T12:59:32;3.17;;;1.00;;
18146;SDS011;9199;48.832;9.182;2023-11-18T13:01:58;5.10;;;1.10;;
18146;SDS011;9199;48.832;9.182;2023-11-18T13:04:30;4.18;;;1.48;;
18146;SDS011;9199;48.832;9.182;2023-11-18T13:06:59;3.50;;;1.20;;
18146;SDS011;9199;48.832;9.182;2023-11-18T13:09:28;4.20;;;1.33;;
18146;SDS011;9199;48.832;9.182;2023-11-18T13:11:56;3.53;;;1.20;;
18146;SDS011;9199;48.832;9.182;2023-11-18T13:14:24;5.50;;;1.40;;
18146;SDS011;9199;48.832;9.182;2023-11-18T13:16:52;3.65;;;1.40;;
18146;SDS011;9199;48.832;9.182;2023-11-18T13:19:24;4.00;;;1.30;;
18146;SDS011;9199;48.832;9.182;2023-11-18T13:21:52;3.10;;;1.10;;
18146;SDS011;9199;48.832;9.182;2023-11-18T13:24:23;4.05;;;1.25;;
18146;SDS011;9199;48.832;9.182;2023-11-18T13:26:51;4.10;;;1.10;;
18146;SDS011;9199;48.832;9.182;2023-11-18T13:29:19;6.43;;;1.15;;
18146;SDS011;9199;48.832;9.182;2023-11-18T13:31:48;5.73;;;2.17;;
18146;SDS011;9199;48.832;9.182;2023-11-18T13:34:18;8.40;;;2.50;;
18146;SDS011;9199;48.832;9.182;2023-11-18T13:36:46;7.60;;;2.30;;
18146;SDS011;9199;48.832;9.182;2023-11-18T13:39:18;19.73;;;5.60;;
18146;SDS011;9199;48.832;9.182;2023-11-18T13:41:47;20.48;;;6.35;;
18146;SDS011;9199;48.832;9.182;2023-11-18T13:47:00;4.10;;;1.40;;
18146;SDS011;9199;48.832;9.182;2023-11-18T13:49:30;3.42;;;1.20;;
18146;SDS011;9199;48.832;9.182;2023-11-18T13:51:57;4.18;;;1.13;;
18146;SDS011;9199;48.832;9.182;2023-11-18T13:54:26;5.05;;;1.42;;
18146;SDS011;9199;48.832;9.182;2023-11-18T13:56:54;4.50;;;1.30;;
18146;SDS011;9199;48.832;9.182;2023-11-18T13:59:23;4.15;;;1.48;;
18146;SDS011;9199;48.832;9.182;2023-11-18T14:01:51;4.32;;;1.60;;
18146;SDS011;9199;48.832;9.182;2023-11-18T14:04:18;3.92;;;1.40;;
18146;SDS011;9199;48.832;9.182;2023-11-18T14:06:45;5.75;;;1.63;;
18146;SDS011;9199;48.832;9.182;2023-11-18T14:09:12;6.30;;;1.43;;
18146;SDS011;9199;48.832;9.182;2023-11-18T14:11:42;4.13;;;1.50;;
18146;SDS011;9199;48.832;9.182;2023-11-18T14:14:10;5.50;;;1.90;;
18146;SDS011;9199;48.832;9.182;2023-11-18T14:16:37;6.32;;;1.80;;
18146;SDS011;9199;48.832;9.182;2023-11-18T14:19:05;4.38;;;1.35;;
18146;SDS011;9199;48.832;9.182;2023-11-18T14:21:32;4.17;;;1.70;;
18146;SDS011;9199;48.832;9.182;2023-11-18T14:23:59;5.53;;;1.88;;
18146;SDS011;9199;48.832;9.182;2023-11-18T14:26:28;4.68;;;1.77;;
18146;SDS011;9199;48.832;9.182;2023-11-18T14:28:57;6.65;;;1.80;;
18146;SDS011;9199;48.832;9.182;2023-11-18T14:31:24;5.63;;;1.80;;
18146;SDS011;9199;48.832;9.182;2023-11-18T14:33:51;7.17;;;2.00;;
18146;SDS011;9199;48.832;9.182;2023-11-18T14:36:19;4.63;;;1.70;;
18146;SDS011;9199;48.832;9.182;2023-11-18T14:38:45;4.75;;;1.75;;
18146;SDS011;9199;48.832;9.182;2023-11-18T14:41:13;4.47;;;1.63;;
18146;SDS011;9199;48.832;9.182;2023-11-18T14:43:40;5.47;;;2.10;;
18146;SDS011;9199;48.832;9.182;2023-11-18T14:46:08;5.13;;;2.17;;
18146;SDS011;9199;48.832;9.182;2023-11-18T14:48:35;7.35;;;2.40;;
18146;SDS011;9199;48.832;9.182;2023-11-18T14:51:02;5.95;;;2.70;;
18146;SDS011;9199;48.832;9.182;2023-11-18T14:53:29;7.22;;;3.15;;
18146;SDS011;9199;48.832;9.182;2023-11-18T14:55:56;5.80;;;2.50;;
18146;SDS011;9199;48.832;9.182;2023-11-18T14:58:23;6.63;;;2.60;;
18146;SDS011;9199;48.832;9.182;2023-11-18T15:00:50;6.32;;;2.92;;
18146;SDS011;9199;48.832;9.182;2023-11-18T15:03:23;5.68;;;2.75;;
18146;SDS011;9199;48.832;9.182;2023-11-18T15:05:50;4.88;;;1.85;;
18146;SDS011;9199;48.832;9.182;2023-11-18T15:08:16;7.72;;;2.33;;
18146;SDS011;9199;48.832;9.182;2023-11-18T15:10:43;5.67;;;2.20;;
18146;SDS011;9199;48.832;9.182;2023-11-18T15:13:10;4.30;;;1.98;;
18146;SDS011;9199;48.832;9.182;2023-11-18T15:15:40;5.13;;;2.20;;
18146;SDS011;9199;48.832;9.182;2023-11-18T15:18:07;5.20;;;2.25;;
18146;SDS011;9199;48.832;9.182;2023-11-18T15:20:40;4.93;;;2.30;;